createdAt,value
2019-03-30T00:00:04.513Z,11.5
2019-03-30T00:02:05.840Z,9.4
2019-03-30T00:04:07.171Z,11.6
2019-03-30T00:06:08.594Z,10.9
2019-03-30T00:08:10.224Z,10.2
2019-03-30T00:10:11.642Z,10.2
2019-03-30T00:12:13.069Z,10.5
2019-03-30T00:14:14.490Z,13.2
2019-03-30T00:16:15.843Z,13.1
2019-03-30T00:18:17.269Z,11.7
2019-03-30T00:20:18.548Z,10.4
2019-03-30T00:22:19.933Z,11
2019-03-30T00:24:21.275Z,11.3
2019-03-30T00:28:24.133Z,11.5
2019-03-30T00:30:25.529Z,12.1
2019-03-30T00:32:26.952Z,10.6
2019-03-30T00:34:28.245Z,11
2019-03-30T00:36:29.587Z,13
2019-03-30T00:38:31.000Z,13.3
2019-03-30T00:40:32.242Z,11.8
2019-03-30T00:42:33.597Z,12.3
2019-03-30T00:44:35.025Z,11.6
2019-03-30T00:46:36.316Z,14.4
2019-03-30T00:48:37.647Z,13.2
2019-03-30T00:50:38.974Z,13.2
2019-03-30T00:52:40.342Z,13.1
2019-03-30T00:54:41.772Z,11.8
2019-03-30T00:56:43.198Z,11.9
2019-03-30T00:58:44.630Z,11.8
2019-03-30T01:00:46.055Z,11.6
2019-03-30T01:02:47.476Z,12.8
2019-03-30T01:04:48.891Z,12.9
2019-03-30T01:06:50.168Z,11.8
2019-03-30T01:08:51.557Z,15.2
2019-03-30T01:10:52.893Z,13
2019-03-30T01:12:54.204Z,13.5
2019-03-30T01:14:55.464Z,11.8
2019-03-30T01:16:56.695Z,13.1
2019-03-30T01:18:58.118Z,12
2019-03-30T01:20:59.539Z,14.7
2019-03-30T01:23:00.960Z,11.7
2019-03-30T01:25:02.291Z,13.6
2019-03-30T01:27:03.715Z,13.9
2019-03-30T01:29:05.041Z,12
2019-03-30T01:31:06.288Z,14
2019-03-30T01:33:07.608Z,13.3
2019-03-30T01:35:09.017Z,13.9
2019-03-30T01:37:10.407Z,12.5
2019-03-30T01:39:11.820Z,13.5
2019-03-30T01:41:13.251Z,15.1
2019-03-30T01:43:14.534Z,13.5
2019-03-30T01:45:15.996Z,15.2
2019-03-30T01:47:17.348Z,14.4
2019-03-30T01:49:18.723Z,13.3
2019-03-30T01:51:20.127Z,14
2019-03-30T01:53:21.532Z,12.5
2019-03-30T01:55:22.815Z,13.8
2019-03-30T01:57:24.092Z,14.6
2019-03-30T01:59:25.416Z,13.9
2019-03-30T02:01:26.854Z,13.9
2019-03-30T02:03:28.207Z,16
2019-03-30T02:05:29.619Z,13.3
2019-03-30T02:07:31.003Z,11.7
2019-03-30T02:09:32.327Z,13.6
2019-03-30T02:11:33.620Z,13.8
2019-03-30T02:13:34.890Z,13.9
2019-03-30T02:15:36.123Z,14.4
2019-03-30T02:17:37.504Z,13.7
2019-03-30T02:19:38.896Z,18.8
2019-03-30T02:21:40.224Z,15
2019-03-30T02:23:41.642Z,14.3
2019-03-30T02:25:43.091Z,14.4
2019-03-30T02:27:44.501Z,16.6
2019-03-30T02:29:45.828Z,17
2019-03-30T02:31:47.264Z,13.2
2019-03-30T02:33:48.684Z,13.6
2019-03-30T02:35:50.011Z,15.3
2019-03-30T02:37:51.435Z,13.6
2019-03-30T02:39:52.702Z,15.5
2019-03-30T02:41:54.129Z,14.2
2019-03-30T02:43:55.555Z,16.2
2019-03-30T02:45:56.985Z,16.4
2019-03-30T02:47:58.407Z,11.9
2019-03-30T02:49:59.839Z,14.9
2019-03-30T02:52:01.269Z,14.4
2019-03-30T02:54:02.689Z,14.9
2019-03-30T02:56:04.245Z,16.5
2019-03-30T02:58:05.648Z,15.2
2019-03-30T03:00:07.219Z,15.1
2019-03-30T03:02:08.603Z,16.8
2019-03-30T03:04:10.036Z,16.3
2019-03-30T03:06:11.460Z,14.9
2019-03-30T03:08:12.893Z,14.2
2019-03-30T03:10:14.265Z,14.4
2019-03-30T03:12:15.688Z,14.8
2019-03-30T03:14:17.084Z,14.3
2019-03-30T03:16:18.465Z,14.8
2019-03-30T03:18:19.848Z,13.1
2019-03-30T03:20:21.233Z,15.7
2019-03-30T03:22:22.612Z,14
2019-03-30T03:24:23.992Z,15.4
2019-03-30T03:26:25.371Z,16.2
2019-03-30T03:28:26.767Z,16.5
2019-03-30T03:30:28.091Z,15.4
2019-03-30T03:32:29.718Z,15.2
2019-03-30T03:34:31.140Z,15.6
2019-03-30T03:36:32.522Z,18.4
2019-03-30T03:38:33.856Z,16.8
2019-03-30T03:40:35.270Z,15.5
2019-03-30T03:42:36.651Z,15.9
2019-03-30T03:44:38.041Z,16.1
2019-03-30T03:46:39.423Z,14.2
2019-03-30T03:48:40.800Z,16.5
2019-03-30T03:50:42.130Z,15.5
2019-03-30T03:52:43.547Z,14.4
2019-03-30T03:54:44.889Z,15.7
2019-03-30T03:56:46.312Z,15.9
2019-03-30T03:58:47.662Z,17.4
2019-03-30T04:00:48.991Z,14.7
2019-03-30T04:02:50.429Z,15.1
2019-03-30T04:04:51.850Z,15.4
2019-03-30T04:06:53.244Z,17
2019-03-30T04:08:54.663Z,14.1
2019-03-30T04:10:55.898Z,14.9
2019-03-30T04:12:57.251Z,18
2019-03-30T04:14:58.632Z,16
2019-03-30T04:17:00.061Z,17.3
2019-03-30T04:19:01.406Z,16.5
2019-03-30T04:21:02.828Z,16.8
2019-03-30T04:23:04.243Z,16.6
2019-03-30T04:25:05.663Z,17.3
2019-03-30T04:27:07.060Z,15.7
2019-03-30T04:29:08.454Z,14.8
2019-03-30T04:31:09.834Z,15.9
2019-03-30T04:33:11.075Z,17.2
2019-03-30T04:35:12.430Z,18.2
2019-03-30T04:37:13.963Z,16.1
2019-03-30T04:39:15.435Z,15.1
2019-03-30T04:41:16.854Z,20.9
2019-03-30T04:43:18.284Z,15
2019-03-30T04:45:19.620Z,16.8
2019-03-30T04:47:20.956Z,17.1
2019-03-30T04:49:22.224Z,15.3
2019-03-30T04:51:23.678Z,16.4
2019-03-30T04:53:25.023Z,16.1
2019-03-30T04:55:26.350Z,15.2
2019-03-30T04:57:27.767Z,17.7
2019-03-30T04:59:29.092Z,16.1
2019-03-30T05:01:30.347Z,15.5
2019-03-30T05:03:31.727Z,16.3
2019-03-30T05:05:33.109Z,15.9
2019-03-30T05:07:34.511Z,17.1
2019-03-30T05:09:35.903Z,15.6
2019-03-30T05:11:37.225Z,14.2
2019-03-30T05:13:38.547Z,15.3
2019-03-30T05:15:39.856Z,17.1
2019-03-30T05:17:47.183Z,15.3
2019-03-30T05:19:49.583Z,16.7
2019-03-30T05:21:50.908Z,16
2019-03-30T05:23:52.275Z,15.6
2019-03-30T05:25:53.651Z,15.6
2019-03-30T05:27:55.031Z,15.5
2019-03-30T05:29:56.412Z,16.8
2019-03-30T05:31:57.801Z,15.7
2019-03-30T05:33:59.221Z,15.1
2019-03-30T05:36:00.648Z,17.2
2019-03-30T05:38:02.081Z,16.8
2019-03-30T05:40:03.513Z,16.3
2019-03-30T05:42:04.921Z,14.9
2019-03-30T05:44:06.348Z,18.6
2019-03-30T05:46:07.770Z,17.5
2019-03-30T05:48:09.091Z,17.5
2019-03-30T05:50:10.497Z,18.8
2019-03-30T05:52:25.455Z,16.1
2019-03-30T05:54:28.345Z,16.2
2019-03-30T05:56:29.708Z,20.1
2019-03-30T05:58:31.030Z,16.3
2019-03-30T06:00:32.357Z,16.1
2019-03-30T06:02:33.680Z,13
2019-03-30T06:04:35.000Z,14
2019-03-30T06:06:36.326Z,15.9
2019-03-30T06:08:37.748Z,14.8
2019-03-30T06:10:39.158Z,14.6
2019-03-30T06:12:40.563Z,18.6
2019-03-30T06:14:41.886Z,16.9
2019-03-30T06:16:43.129Z,14.1
2019-03-30T06:18:44.459Z,15.5
2019-03-30T06:20:45.842Z,16.1
2019-03-30T06:22:47.225Z,16.3
2019-03-30T06:24:48.655Z,16.7
2019-03-30T06:26:50.040Z,22
2019-03-30T06:28:51.415Z,13.7
2019-03-30T06:30:52.804Z,24.1
2019-03-30T06:32:54.232Z,18.4
2019-03-30T06:34:55.660Z,19.2
2019-03-30T06:36:56.992Z,19.2
2019-03-30T06:38:58.415Z,21.9
2019-03-30T06:40:59.778Z,21.4
2019-03-30T06:43:01.147Z,20.8
2019-03-30T06:45:02.415Z,21.2
2019-03-30T06:47:03.848Z,25.6
2019-03-30T06:49:05.246Z,23
2019-03-30T06:51:06.569Z,23.8
2019-03-30T06:53:07.932Z,23.1
2019-03-30T06:55:09.174Z,24
2019-03-30T06:57:10.402Z,22.5
2019-03-30T06:59:11.647Z,19.6
2019-03-30T07:01:13.071Z,23.2
2019-03-30T07:03:14.498Z,19.8
2019-03-30T07:05:15.839Z,26.5
2019-03-30T07:07:17.206Z,25.5
2019-03-30T07:09:18.535Z,24.2
2019-03-30T07:11:21.193Z,22.9
2019-03-30T07:13:22.859Z,20.4
2019-03-30T07:15:24.154Z,24.8
2019-03-30T07:17:25.584Z,18.6
2019-03-30T07:19:27.065Z,21
2019-03-30T07:21:28.381Z,19
2019-03-30T07:23:29.718Z,19.5
2019-03-30T07:25:31.135Z,20.4
2019-03-30T07:27:32.528Z,19.8
2019-03-30T07:29:33.960Z,18.1
2019-03-30T07:31:35.383Z,21.7
2019-03-30T07:33:36.813Z,21.7
2019-03-30T07:35:38.158Z,21.5
2019-03-30T07:37:39.596Z,22.6
2019-03-30T07:39:41.013Z,21.2
2019-03-30T07:41:42.423Z,21.3
2019-03-30T07:43:43.809Z,22.6
2019-03-30T07:45:45.194Z,21.8
2019-03-30T07:47:46.621Z,21.4
2019-03-30T07:49:48.050Z,20.5
2019-03-30T07:51:49.325Z,20.3
2019-03-30T07:53:50.754Z,22
2019-03-30T07:55:52.086Z,20.9
2019-03-30T07:57:53.427Z,22.1
2019-03-30T07:59:55.023Z,20.8
2019-03-30T08:01:56.462Z,21.9
2019-03-30T08:03:57.805Z,22.8
2019-03-30T08:05:59.228Z,21.9
2019-03-30T08:08:00.596Z,21.7
2019-03-30T08:10:01.930Z,21.2
2019-03-30T08:12:03.336Z,21.2
2019-03-30T08:14:04.683Z,24
2019-03-30T08:16:06.032Z,24.8
2019-03-30T08:18:07.294Z,24.1
2019-03-30T08:20:08.670Z,24.7
2019-03-30T08:22:10.059Z,26.9
2019-03-30T08:24:11.400Z,29.2
2019-03-30T08:26:12.823Z,30.5
2019-03-30T08:28:14.067Z,24.9
2019-03-30T08:30:15.580Z,23.9
2019-03-30T08:32:16.927Z,31.8
2019-03-30T08:34:18.269Z,25.8
2019-03-30T08:36:19.602Z,32.9
2019-03-30T08:38:21.121Z,24.8
2019-03-30T08:40:22.493Z,25.6
2019-03-30T08:42:23.868Z,31.1
2019-03-30T08:44:25.203Z,27.5
2019-03-30T08:46:26.637Z,30.3
2019-03-30T08:48:27.972Z,24.2
2019-03-30T08:50:29.402Z,24.4
2019-03-30T08:52:30.838Z,24.9
2019-03-30T08:54:32.184Z,21.9
2019-03-30T08:56:33.566Z,24.1
2019-03-30T08:58:34.991Z,26.3
2019-03-30T09:00:36.321Z,27
2019-03-30T09:02:37.699Z,26.1
2019-03-30T09:04:39.037Z,26.7
2019-03-30T09:06:40.466Z,25.8
2019-03-30T09:08:41.803Z,30.2
2019-03-30T09:10:43.244Z,25.6
2019-03-30T09:12:44.615Z,25
2019-03-30T09:14:46.002Z,25.4
2019-03-30T09:16:47.455Z,28.9
2019-03-30T09:18:48.840Z,26.7
2019-03-30T09:20:50.277Z,27.4
2019-03-30T09:22:51.527Z,24.9
2019-03-30T09:24:52.964Z,27.3
2019-03-30T09:26:54.287Z,28.6
2019-03-30T09:28:55.680Z,26.7
2019-03-30T09:30:57.059Z,25.1
2019-03-30T09:32:58.444Z,27.1
2019-03-30T09:34:59.820Z,26.2
2019-03-30T09:37:01.258Z,26.4
2019-03-30T09:39:02.694Z,29.9
2019-03-30T09:41:33.168Z,29.6
2019-03-30T09:43:37.374Z,29.8
2019-03-30T09:45:39.176Z,31.2
2019-03-30T09:47:40.437Z,30.2
2019-03-30T09:49:41.778Z,27.3
2019-03-30T09:51:43.124Z,29.2
2019-03-30T09:53:44.464Z,30.4
2019-03-30T09:55:45.809Z,31.4
2019-03-30T09:57:47.252Z,29.3
2019-03-30T09:59:48.694Z,31.4
2019-03-30T10:01:50.044Z,26.5
2019-03-30T10:03:51.420Z,27.2
2019-03-30T10:05:52.866Z,28.2
2019-03-30T10:07:54.284Z,26.6
2019-03-30T10:09:55.628Z,26.3
2019-03-30T10:11:57.064Z,25.7
2019-03-30T10:13:58.410Z,25.9
2019-03-30T10:15:59.753Z,27.5
2019-03-30T10:18:01.100Z,24.1
2019-03-30T10:20:04.449Z,28
2019-03-30T10:22:06.673Z,25
2019-03-30T10:24:08.045Z,26.5
2019-03-30T10:26:09.592Z,25.4
2019-03-30T10:28:11.029Z,22.9
2019-03-30T10:30:12.472Z,24.6
2019-03-30T10:32:13.816Z,23.8
2019-03-30T10:34:15.262Z,22.2
2019-03-30T10:36:16.710Z,23.4
2019-03-30T10:38:18.154Z,20.9
2019-03-30T10:40:20.789Z,22.5
2019-03-30T10:42:22.396Z,24.6
2019-03-30T10:44:23.806Z,22.1
2019-03-30T10:46:25.151Z,20.8
2019-03-30T10:48:26.498Z,20.4
2019-03-30T10:50:27.770Z,23.6
2019-03-30T10:52:29.101Z,22
2019-03-30T10:54:30.470Z,21.8
2019-03-30T10:56:31.841Z,23.6
2019-03-30T10:58:33.224Z,22.6
2019-03-30T11:00:34.666Z,19.7
2019-03-30T11:02:36.016Z,19.4
2019-03-30T11:04:37.655Z,20.6
2019-03-30T11:06:39.210Z,20.8
2019-03-30T11:08:40.555Z,16.9
2019-03-30T11:10:41.907Z,14.8
2019-03-30T11:12:43.344Z,15.6
2019-03-30T11:14:44.701Z,9.4
2019-03-30T11:16:46.094Z,10
2019-03-30T11:18:47.394Z,7.9
2019-03-30T11:20:48.844Z,13
2019-03-30T11:22:50.244Z,9.6
2019-03-30T11:25:06.177Z,9.6
2019-03-30T11:27:09.806Z,8.6
2019-03-30T11:29:11.201Z,11.2
2019-03-30T11:31:12.649Z,9.2
2019-03-30T11:33:14.000Z,11.5
2019-03-30T11:35:15.349Z,7.9
2019-03-30T11:37:16.704Z,16.1
2019-03-30T11:39:18.046Z,12.5
2019-03-30T11:41:19.485Z,13.3
2019-03-30T11:43:20.938Z,9.7
2019-03-30T11:45:22.391Z,14.2
2019-03-30T11:47:23.843Z,12
2019-03-30T11:49:25.294Z,10.7
2019-03-30T11:51:26.750Z,9.6
2019-03-30T11:53:28.196Z,8
2019-03-30T11:55:29.647Z,8
2019-03-30T11:57:31.095Z,8
2019-03-30T11:59:32.451Z,7.6
2019-03-30T12:01:33.803Z,8.6
2019-03-30T12:03:35.255Z,11.2
2019-03-30T12:05:36.605Z,10.8
2019-03-30T12:07:37.878Z,12.2
2019-03-30T12:09:39.242Z,10.1
2019-03-30T12:11:40.592Z,12.9
2019-03-30T12:13:41.944Z,11.8
2019-03-30T12:15:43.331Z,12.5
2019-03-30T12:17:44.769Z,11.1
2019-03-30T12:19:46.040Z,11.9
2019-03-30T12:21:47.321Z,13
2019-03-30T12:23:48.672Z,9.5
2019-03-30T12:25:50.092Z,10.1
2019-03-30T12:27:51.450Z,12.7
2019-03-30T12:29:52.848Z,13.1
2019-03-30T12:31:54.234Z,8.5
2019-03-30T12:33:55.521Z,10.3
2019-03-30T12:35:56.779Z,12.6
2019-03-30T12:37:58.182Z,12
2019-03-30T12:39:59.464Z,10.4
2019-03-30T12:42:00.914Z,9.4
2019-03-30T12:44:02.319Z,7.8
2019-03-30T12:46:03.701Z,11.2
2019-03-30T12:48:05.092Z,7.9
2019-03-30T12:50:06.435Z,9.4
2019-03-30T12:52:07.859Z,8.4
2019-03-30T12:54:09.216Z,10.1
2019-03-30T12:56:10.575Z,10
2019-03-30T12:58:11.935Z,8.8
2019-03-30T13:00:13.359Z,9
2019-03-30T13:02:14.718Z,7.8
2019-03-30T13:04:16.155Z,6.9
2019-03-30T13:06:17.584Z,12.5
2019-03-30T13:08:18.917Z,9.7
2019-03-30T13:10:20.300Z,11.2
2019-03-30T13:12:21.652Z,9.7
2019-03-30T13:14:22.999Z,10.1
2019-03-30T13:16:26.320Z,9.4
2019-03-30T13:18:27.940Z,7.9
2019-03-30T13:20:29.295Z,8.1
2019-03-30T13:22:30.556Z,8.9
2019-03-30T13:24:31.934Z,9.5
2019-03-30T13:26:33.307Z,8.6
2019-03-30T13:28:34.661Z,8.3
2019-03-30T13:30:36.112Z,6.8
2019-03-30T13:32:37.560Z,6.6
2019-03-30T13:34:39.010Z,9.7
2019-03-30T13:36:40.463Z,8.9
2019-03-30T13:38:41.913Z,8.7
2019-03-30T13:40:43.366Z,10.2
2019-03-30T13:42:44.669Z,9
2019-03-30T13:44:46.130Z,9
2019-03-30T13:46:47.580Z,7.7
2019-03-30T13:48:48.939Z,10.4
2019-03-30T13:50:50.399Z,10.1
2019-03-30T13:52:51.847Z,8.4
2019-03-30T13:54:53.247Z,9
2019-03-30T13:56:54.610Z,8.7
2019-03-30T13:58:55.944Z,7.4
2019-03-30T14:00:57.302Z,7.8
2019-03-30T14:02:58.664Z,9.9
2019-03-30T14:05:00.032Z,8.2
2019-03-30T14:07:01.694Z,8.5
2019-03-30T14:09:03.122Z,8.9
2019-03-30T14:11:04.486Z,8.5
2019-03-30T14:13:05.938Z,9
2019-03-30T14:15:09.304Z,9.1
2019-03-30T14:17:11.072Z,10.9
2019-03-30T14:19:12.378Z,9.5
2019-03-30T14:21:13.830Z,9.2
2019-03-30T14:23:15.210Z,10.1
2019-03-30T14:25:16.659Z,10.8
2019-03-30T14:27:18.108Z,11.6
2019-03-30T14:29:19.438Z,9.2
2019-03-30T14:31:20.792Z,8.9
2019-03-30T14:33:22.211Z,9.2
2019-03-30T14:35:23.572Z,11.3
2019-03-30T14:37:25.022Z,10
2019-03-30T14:39:26.377Z,10.9
2019-03-30T14:41:27.767Z,10.7
2019-03-30T14:43:29.220Z,11.9
2019-03-30T14:45:30.502Z,10.6
2019-03-30T14:47:31.916Z,11.8
2019-03-30T14:49:33.296Z,11.3
2019-03-30T14:51:34.741Z,10.8
2019-03-30T14:53:36.189Z,9.7
2019-03-30T14:55:39.496Z,11.4
2019-03-30T14:57:41.203Z,12.2
2019-03-30T14:59:42.659Z,11.7
2019-03-30T15:01:44.118Z,11.7
2019-03-30T15:03:45.665Z,11.3
2019-03-30T15:05:47.117Z,12.6
2019-03-30T15:07:48.478Z,12.2
2019-03-30T15:09:49.930Z,14.3
2019-03-30T15:11:51.395Z,13.9
2019-03-30T15:13:52.834Z,11.4
2019-03-30T15:15:54.186Z,11
2019-03-30T15:17:55.470Z,10.6
2019-03-30T15:19:56.841Z,13.2
2019-03-30T15:21:58.199Z,11.2
2019-03-30T15:23:59.665Z,11.5
2019-03-30T15:26:01.049Z,12.7
2019-03-30T15:28:02.435Z,13.5
2019-03-30T15:30:03.816Z,10.1
2019-03-30T15:32:05.187Z,12
2019-03-30T15:34:06.540Z,11.3
2019-03-30T15:36:07.893Z,11.8
2019-03-30T15:38:09.339Z,11.4
2019-03-30T15:40:10.662Z,11.1
2019-03-30T15:42:12.112Z,11.4
2019-03-30T15:44:13.473Z,10.2
2019-03-30T15:46:15.092Z,10.6
2019-03-30T15:48:16.474Z,10
2019-03-30T15:50:17.854Z,12.2
2019-03-30T15:52:19.236Z,12.2
2019-03-30T15:54:20.703Z,11
2019-03-30T15:56:22.159Z,9.9
2019-03-30T15:58:23.516Z,10.7
2019-03-30T16:00:24.817Z,11.5
2019-03-30T16:02:26.230Z,12.6
2019-03-30T16:04:27.695Z,9.8
2019-03-30T16:06:29.110Z,10.4
2019-03-30T16:08:30.488Z,11.1
2019-03-30T16:10:31.859Z,12.4
2019-03-30T16:12:33.313Z,11.3
2019-03-30T16:14:34.710Z,10.5
2019-03-30T16:16:36.074Z,10.5
2019-03-30T16:18:37.521Z,11.1
2019-03-30T16:20:38.821Z,14.1
2019-03-30T16:22:40.290Z,14.2
2019-03-30T16:24:41.728Z,14.5
2019-03-30T16:26:43.083Z,12.2
2019-03-30T16:28:44.535Z,13
2019-03-30T16:30:45.992Z,11.9
2019-03-30T16:32:47.446Z,10.1
2019-03-30T16:34:48.905Z,12.3
2019-03-30T16:36:50.349Z,10.6
2019-03-30T16:38:51.648Z,11.1
2019-03-30T16:40:53.096Z,13.7
2019-03-30T16:42:54.479Z,15.5
2019-03-30T16:44:55.893Z,16.8
2019-03-30T16:46:57.501Z,11.5
2019-03-30T16:48:59.120Z,12.2
2019-03-30T16:51:00.526Z,13.8
2019-03-30T16:53:01.986Z,14.5
2019-03-30T16:55:03.294Z,13.1
2019-03-30T16:57:04.740Z,15.7
2019-03-30T16:59:06.095Z,12.5
2019-03-30T17:01:07.447Z,12.1
2019-03-30T17:03:08.802Z,12.7
2019-03-30T17:05:10.250Z,12.5
2019-03-30T17:07:11.699Z,11.6
2019-03-30T17:09:13.015Z,11.6
2019-03-30T17:11:14.455Z,12.4
2019-03-30T17:13:15.880Z,10.8
2019-03-30T17:15:17.237Z,10.4
2019-03-30T17:17:18.524Z,11.6
2019-03-30T17:19:19.872Z,10.1
2019-03-30T17:21:21.257Z,9.7
2019-03-30T17:23:22.586Z,10.8
2019-03-30T17:25:23.873Z,10.1
2019-03-30T17:27:25.317Z,11.2
2019-03-30T17:29:26.748Z,10.6
2019-03-30T17:31:28.195Z,11.3
2019-03-30T17:33:29.639Z,10.7
2019-03-30T17:35:31.089Z,10.1
2019-03-30T17:37:32.535Z,11.4
2019-03-30T17:39:33.993Z,9.5
2019-03-30T17:41:35.430Z,13.5
2019-03-30T17:43:36.879Z,10.2
2019-03-30T17:45:38.321Z,13.8
2019-03-30T17:47:39.652Z,11.1
2019-03-30T17:49:41.098Z,11.8
2019-03-30T17:51:42.423Z,11.9
2019-03-30T17:53:43.755Z,9.3
2019-03-30T17:55:45.295Z,10.5
2019-03-30T17:57:46.734Z,7.7
2019-03-30T17:59:48.164Z,7.5
2019-03-30T18:01:49.612Z,8.4
2019-03-30T18:03:50.959Z,9
2019-03-30T18:05:52.379Z,6.8
2019-03-30T18:07:53.826Z,8.8
2019-03-30T18:09:55.082Z,8.1
2019-03-30T18:11:56.354Z,7.8
2019-03-30T18:13:57.797Z,7.3
2019-03-30T18:15:59.157Z,6.8
2019-03-30T18:18:00.447Z,8.2
2019-03-30T18:20:01.888Z,6.6
2019-03-30T18:22:03.332Z,9.2
2019-03-30T18:24:04.774Z,9.7
2019-03-30T18:26:06.214Z,8.8
2019-03-30T18:28:07.558Z,7.7
2019-03-30T18:30:08.901Z,7.8
2019-03-30T18:32:10.241Z,9.3
2019-03-30T18:34:11.682Z,9.9
2019-03-30T18:36:13.025Z,8.3
2019-03-30T18:38:14.373Z,8.3
2019-03-30T18:40:15.814Z,8.3
2019-03-30T18:42:17.253Z,7.8
2019-03-30T18:44:18.536Z,7.9
2019-03-30T18:46:19.796Z,7.3
2019-03-30T18:48:21.087Z,9.9
2019-03-30T18:50:22.531Z,16
2019-03-30T18:52:23.968Z,8.1
2019-03-30T18:54:25.321Z,8.4
2019-03-30T18:56:27.976Z,8.2
2019-03-30T18:58:40.920Z,8.6
2019-03-30T19:00:43.536Z,8.4
2019-03-30T19:02:44.889Z,7.2
2019-03-30T19:04:46.293Z,7.5
2019-03-30T19:06:47.599Z,8.2
2019-03-30T19:08:48.975Z,8.1
2019-03-30T19:10:50.315Z,8.6
2019-03-30T19:12:51.742Z,9.5
2019-03-30T19:14:53.135Z,9.4
2019-03-30T19:16:54.484Z,9.8
2019-03-30T19:18:55.826Z,9.3
2019-03-30T19:20:57.123Z,7.7
2019-03-30T19:22:58.411Z,8.7
2019-03-30T19:24:59.849Z,8.4
2019-03-30T19:27:01.239Z,9.4
2019-03-30T19:29:02.613Z,9.1
2019-03-30T19:31:03.902Z,9.6
2019-03-30T19:33:05.339Z,9.7
2019-03-30T19:35:06.763Z,7.8
2019-03-30T19:37:08.125Z,9
2019-03-30T19:39:09.571Z,9.2
2019-03-30T19:41:11.023Z,8.5
2019-03-30T19:43:12.287Z,10.1
2019-03-30T19:45:13.726Z,10.1
2019-03-30T19:47:15.062Z,9
2019-03-30T19:49:16.500Z,13
2019-03-30T19:51:17.832Z,13.2
2019-03-30T19:53:19.182Z,9.8
2019-03-30T19:55:20.534Z,10.1
2019-03-30T19:57:21.900Z,10.7
2019-03-30T19:59:23.345Z,11.2
2019-03-30T20:01:24.746Z,8.1
2019-03-30T20:03:26.127Z,8.8
2019-03-30T20:05:27.515Z,6.9
2019-03-30T20:07:28.847Z,8.3
2019-03-30T20:09:30.116Z,8.4
2019-03-30T20:11:31.757Z,9.1
2019-03-30T20:13:33.099Z,9.3
2019-03-30T20:15:34.537Z,8.4
2019-03-30T20:17:35.972Z,11.9
2019-03-30T20:19:37.234Z,11.5
2019-03-30T20:21:38.675Z,14.3
2019-03-30T20:23:40.108Z,23.6
2019-03-30T20:25:41.446Z,12.8
2019-03-30T20:27:42.786Z,15.6
2019-03-30T20:29:44.218Z,16.4
2019-03-30T20:31:45.657Z,18.2
2019-03-30T20:33:46.995Z,15.4
2019-03-30T20:35:48.336Z,16.9
2019-03-30T20:37:49.734Z,15.3
2019-03-30T20:39:51.145Z,13.8
2019-03-30T20:41:52.513Z,18.4
2019-03-30T20:43:53.871Z,16
2019-03-30T20:45:55.221Z,14.5
2019-03-30T20:47:56.660Z,13.4
2019-03-30T20:49:58.108Z,13.6
2019-03-30T20:51:59.539Z,10.7
2019-03-30T20:54:00.883Z,12.7
2019-03-30T20:56:02.318Z,10.2
2019-03-30T20:58:03.759Z,9.1
2019-03-30T21:00:05.206Z,8.1
2019-03-30T21:02:06.635Z,10.2
2019-03-30T21:04:08.076Z,9.3
2019-03-30T21:06:09.518Z,9.1
2019-03-30T21:08:10.950Z,8.5
2019-03-30T21:10:12.289Z,8.8
2019-03-30T21:12:13.695Z,9.6
2019-03-30T21:14:14.945Z,9.3
2019-03-30T21:16:16.306Z,10.5
2019-03-30T21:18:17.743Z,9
2019-03-30T21:20:19.183Z,14.1
2019-03-30T21:22:20.694Z,12.1
2019-03-30T21:24:22.057Z,11.1
2019-03-30T21:26:23.395Z,12.1
2019-03-30T21:28:24.771Z,11.1
2019-03-30T21:30:26.118Z,12.3
2019-03-30T21:32:27.453Z,12.2
2019-03-30T21:34:28.806Z,11.7
2019-03-30T21:36:30.231Z,10.9
2019-03-30T21:38:31.486Z,9.8
2019-03-30T21:40:32.891Z,9.3
2019-03-30T21:42:34.243Z,8.6
2019-03-30T21:44:35.653Z,23
2019-03-30T21:46:37.031Z,16.4
2019-03-30T21:48:38.423Z,20.7
2019-03-30T21:50:39.759Z,14.9
2019-03-30T21:52:41.098Z,17.6
2019-03-30T21:54:42.437Z,20.4
2019-03-30T21:56:43.803Z,18.7
2019-03-30T21:58:45.158Z,15.6
2019-03-30T22:00:46.596Z,11.9
2019-03-30T22:02:48.032Z,12.3
2019-03-30T22:04:49.463Z,11.3
2019-03-30T22:06:50.799Z,11.9
2019-03-30T22:08:52.225Z,16.6
2019-03-30T22:10:53.568Z,21.2
2019-03-30T22:12:55.004Z,12.2
2019-03-30T22:14:56.394Z,20.1
2019-03-30T22:16:57.732Z,13.2
2019-03-30T22:18:59.032Z,9.1
2019-03-30T22:21:00.285Z,12
2019-03-30T22:23:01.927Z,11.1
2019-03-30T22:25:03.307Z,11.3
2019-03-30T22:27:04.748Z,10.6
2019-03-30T22:29:06.186Z,8.4
2019-03-30T22:31:07.619Z,10
2019-03-30T22:33:08.863Z,11.5
2019-03-30T22:35:10.299Z,8.7
2019-03-30T22:37:11.731Z,8.2
2019-03-30T22:39:13.027Z,8.3
2019-03-30T22:41:14.354Z,9.8
2019-03-30T22:43:15.791Z,8.3
2019-03-30T22:45:17.149Z,10.7
2019-03-30T22:47:18.521Z,12.3
2019-03-30T22:49:19.962Z,9.4
2019-03-30T22:51:21.285Z,10.7
2019-03-30T22:53:22.662Z,9.1
2019-03-30T22:55:24.023Z,10.6
2019-03-30T22:57:25.335Z,10.6
2019-03-30T22:59:26.591Z,10.9
2019-03-30T23:01:27.976Z,12
2019-03-30T23:03:29.317Z,12.5
2019-03-30T23:05:30.735Z,9.1
2019-03-30T23:07:32.116Z,9.9
2019-03-30T23:09:33.520Z,9.4
2019-03-30T23:11:34.888Z,9.8
2019-03-30T23:13:36.225Z,12.1
2019-03-30T23:15:37.561Z,10.2
2019-03-30T23:17:38.995Z,9
2019-03-30T23:19:40.338Z,9.4
2019-03-30T23:21:41.783Z,8.2
2019-03-30T23:23:43.206Z,10.5
2019-03-30T23:25:44.541Z,9.1
2019-03-30T23:27:45.982Z,8.6
2019-03-30T23:29:47.309Z,12.7
2019-03-30T23:31:48.582Z,16.3
2019-03-30T23:33:49.966Z,13.2
2019-03-30T23:35:51.313Z,11.1
2019-03-30T23:37:52.687Z,10.6
2019-03-30T23:39:54.031Z,12.1
2019-03-30T23:41:55.413Z,11
2019-03-30T23:43:56.752Z,10.1
2019-03-30T23:45:58.125Z,11.4
2019-03-30T23:47:59.530Z,12.9
2019-03-30T23:50:00.944Z,12.4
2019-03-30T23:52:02.327Z,12
2019-03-30T23:54:03.702Z,11.7
2019-03-30T23:56:05.115Z,10.9
2019-03-30T23:58:06.532Z,10.9
